Time;durP1;ratioP1;P1;durP2;ratioP2;P2;SDS_P1;SDS_P2;PMS_P1;PMS_P2;Temp;Humidity;BMP_temperature;BMP_pressure;BME280_temperature;BME280_humidity;BME280_pressure;Samples;Min_cycle;Max_cycle;Signal;HPM_P1;HPM_P2
2022/04/23 00:02:01;;;;;;;34.95;16.85;;;6.40;99.90;;;;;;5009513;28;20089;-72
2022/04/23 00:04:30;;;;;;;30.77;17.52;;;6.50;99.90;;;;;;4994068;28;20435;-72
2022/04/23 00:06:59;;;;;;;34.30;16.35;;;6.50;99.90;;;;;;4993629;28;20033;-72
2022/04/23 00:09:25;;;;;;;26.98;16.67;;;6.50;99.90;;;;;;4994044;28;20030;-72
2022/04/23 00:11:52;;;;;;;33.22;17.25;;;6.50;99.90;;;;;;4997710;28;20030;-72
2022/04/23 00:14:19;;;;;;;34.22;16.63;;;6.50;99.90;;;;;;4997660;28;20026;-72
2022/04/23 00:16:44;;;;;;;35.65;16.83;;;6.50;99.90;;;;;;4997374;28;20475;-72
2022/04/23 00:19:10;;;;;;;28.45;16.00;;;6.50;99.90;;;;;;4997626;28;20030;-72
2022/04/23 00:21:35;;;;;;;29.98;16.48;;;6.50;99.90;;;;;;4997533;28;20035;-72
2022/04/23 00:24:01;;;;;;;44.38;18.85;;;6.40;99.90;;;;;;4997461;28;20034;-72
2022/04/23 00:26:26;;;;;;;38.13;16.27;;;6.50;99.90;;;;;;4997047;28;20022;-72
2022/04/23 00:28:53;;;;;;;29.60;17.55;;;6.40;99.90;;;;;;4997477;28;20050;-72
2022/04/23 00:31:19;;;;;;;30.35;15.63;;;6.40;99.90;;;;;;4997395;28;20035;-72
2022/04/23 00:33:44;;;;;;;37.65;18.67;;;6.30;99.90;;;;;;4996953;28;20034;-72
2022/04/23 00:36:11;;;;;;;35.65;19.38;;;6.30;99.90;;;;;;4997227;28;20026;-72
2022/04/23 00:38:39;;;;;;;35.72;18.23;;;6.30;99.90;;;;;;4997215;28;20026;-72
2022/04/23 00:41:05;;;;;;;32.55;17.70;;;6.30;99.90;;;;;;4997163;28;20426;-72
2022/04/23 00:43:33;;;;;;;37.35;18.60;;;6.30;99.90;;;;;;4996684;28;20027;-72
2022/04/23 00:46:00;;;;;;;30.65;18.83;;;6.20;99.90;;;;;;4997224;28;20386;-72
2022/04/23 00:48:26;;;;;;;36.63;19.55;;;6.30;99.90;;;;;;4997074;28;20033;-72
2022/04/23 00:50:56;;;;;;;30.08;18.08;;;6.20;99.90;;;;;;4996906;28;20109;-72
2022/04/23 00:53:23;;;;;;;38.60;21.05;;;6.20;99.90;;;;;;4997428;28;20084;-72
2022/04/23 00:55:49;;;;;;;35.75;20.60;;;6.20;99.90;;;;;;4996496;28;20023;-72
2022/04/23 00:58:16;;;;;;;38.15;19.48;;;6.20;99.90;;;;;;4996931;28;20117;-72
2022/04/23 01:00:45;;;;;;;36.03;19.20;;;6.20;99.90;;;;;;4996643;28;20030;-72
2022/04/23 01:03:12;;;;;;;37.72;20.60;;;6.20;99.90;;;;;;4996853;28;20117;-72
2022/04/23 01:05:46;;;;;;;33.38;20.85;;;6.20;99.90;;;;;;4996737;28;20105;-72
2022/04/23 01:08:17;;;;;;;33.58;19.23;;;6.20;99.90;;;;;;4997124;28;20495;-72
2022/04/23 01:10:48;;;;;;;34.47;19.63;;;6.10;99.90;;;;;;4996132;28;20494;-72
2022/04/23 01:13:14;;;;;;;33.30;20.08;;;6.10;99.90;;;;;;4996681;28;20467;-72
2022/04/23 01:16:02;;;;;;;33.63;18.95;;;6.10;99.90;;;;;;4996605;28;20467;-72
2022/04/23 01:18:27;;;;;;;38.97;21.70;;;6.10;99.90;;;;;;4995788;28;20113;-72
2022/04/23 01:21:04;;;;;;;33.08;21.63;;;6.00;99.90;;;;;;4996376;28;20074;-72
2022/04/23 01:23:30;;;;;;;40.45;21.85;;;6.10;99.90;;;;;;4995881;28;20391;-72
2022/04/23 01:25:56;;;;;;;37.75;20.52;;;6.00;99.90;;;;;;4995846;28;20100;-72
2022/04/23 01:28:23;;;;;;;39.88;21.10;;;6.00;99.90;;;;;;4996257;28;20042;-72
2022/04/23 01:30:53;;;;;;;31.70;20.75;;;6.00;99.90;;;;;;4996151;28;20077;-72
2022/04/23 01:33:19;;;;;;;41.33;22.17;;;6.00;99.90;;;;;;4995116;28;20023;-72
2022/04/23 01:35:45;;;;;;;39.28;21.00;;;5.90;99.90;;;;;;4995863;28;20033;-72
2022/04/23 01:38:12;;;;;;;41.15;21.90;;;6.00;99.90;;;;;;4996114;28;20034;-72
2022/04/23 01:40:38;;;;;;;32.97;21.15;;;5.90;99.90;;;;;;4996029;28;20044;-72
2022/04/23 01:43:04;;;;;;;33.03;20.23;;;5.90;99.90;;;;;;4996262;28;20026;-72
2022/04/23 01:45:30;;;;;;;35.17;21.52;;;5.80;99.90;;;;;;4995909;28;20029;-72
2022/04/23 01:47:55;;;;;;;36.88;22.92;;;5.80;99.90;;;;;;4995626;28;20026;-72
2022/04/23 01:50:21;;;;;;;36.85;22.15;;;5.70;99.90;;;;;;5010998;28;20546;-72
2022/04/23 01:52:47;;;;;;;37.28;21.42;;;5.80;99.90;;;;;;5010897;28;20502;-72
2022/04/23 01:55:12;;;;;;;35.38;22.13;;;5.80;99.90;;;;;;4995969;28;20407;-72
2022/04/23 01:57:38;;;;;;;35.50;21.13;;;5.70;99.90;;;;;;5010747;28;20026;-72
2022/04/23 02:00:07;;;;;;;39.28;22.45;;;5.70;99.90;;;;;;4995843;28;20033;-72
2022/04/23 02:02:32;;;;;;;38.28;21.98;;;5.70;99.90;;;;;;4995283;28;20023;-72
2022/04/23 02:04:58;;;;;;;32.63;21.65;;;5.70;99.90;;;;;;4995696;28;20386;-72
2022/04/23 02:07:24;;;;;;;40.17;21.88;;;5.70;99.90;;;;;;4994671;28;20027;-72
2022/04/23 02:09:50;;;;;;;32.45;21.33;;;5.80;99.90;;;;;;4996392;28;20037;-72
2022/04/23 02:12:15;;;;;;;38.53;22.00;;;5.80;99.90;;;;;;4996096;28;20026;-72
2022/04/23 02:14:41;;;;;;;36.55;21.73;;;5.90;99.90;;;;;;4996088;28;20045;-72
2022/04/23 02:17:06;;;;;;;30.67;20.38;;;5.90;99.90;;;;;;5010627;28;20022;-72
2022/04/23 02:19:33;;;;;;;38.85;22.45;;;5.90;99.90;;;;;;4995454;28;20479;-72
2022/04/23 02:21:59;;;;;;;36.15;22.40;;;6.00;99.90;;;;;;4995030;28;20023;-72
2022/04/23 02:24:25;;;;;;;32.20;21.85;;;6.00;99.90;;;;;;4995566;28;20030;-73
2022/04/23 02:26:50;;;;;;;37.65;21.60;;;6.00;99.90;;;;;;4995446;28;20529;-72
2022/04/23 02:29:16;;;;;;;37.33;20.52;;;5.90;99.90;;;;;;4995016;28;20045;-72
2022/04/23 02:31:41;;;;;;;38.15;21.75;;;5.90;99.90;;;;;;4995478;28;20034;-72
2022/04/23 02:34:07;;;;;;;41.53;22.15;;;5.90;99.90;;;;;;4994716;28;20030;-72
2022/04/23 02:36:32;;;;;;;32.60;20.55;;;5.90;99.90;;;;;;4995358;28;20030;-72
2022/04/23 02:38:59;;;;;;;36.20;21.40;;;5.90;99.90;;;;;;4995069;28;20022;-72
2022/04/23 02:41:24;;;;;;;33.13;21.02;;;5.80;99.90;;;;;;4995210;28;20366;-72
2022/04/23 02:43:50;;;;;;;40.35;20.63;;;5.80;99.90;;;;;;4995210;28;20018;-72
2022/04/23 02:46:16;;;;;;;34.55;21.52;;;5.80;99.90;;;;;;4994506;28;20018;-71
2022/04/23 02:48:42;;;;;;;36.78;22.35;;;5.80;99.90;;;;;;4994825;28;20030;-73
2022/04/23 02:51:08;;;;;;;42.88;20.73;;;5.80;99.90;;;;;;4996044;28;20414;-72
2022/04/23 02:53:34;;;;;;;40.10;22.25;;;5.80;99.90;;;;;;4995133;28;20030;-72
2022/04/23 02:56:02;;;;;;;35.55;21.95;;;5.70;99.90;;;;;;4994428;28;20386;-72
2022/04/23 02:58:28;;;;;;;39.25;22.23;;;5.70;99.90;;;;;;4994625;28;20390;-72
2022/04/23 03:00:54;;;;;;;33.47;21.33;;;5.60;99.90;;;;;;4994539;28;20026;-72
2022/04/23 03:03:21;;;;;;;34.17;21.80;;;5.60;99.90;;;;;;4995066;28;20106;-72
2022/04/23 03:05:46;;;;;;;34.22;21.65;;;5.50;99.90;;;;;;4994681;28;20430;-72
2022/04/23 03:08:13;;;;;;;44.15;22.42;;;5.60;99.90;;;;;;4994428;28;20026;-72
2022/04/23 03:10:39;;;;;;;33.53;21.27;;;5.60;99.90;;;;;;4994616;28;20094;-72
2022/04/23 03:13:07;;;;;;;41.22;21.02;;;5.60;99.90;;;;;;4994668;28;20053;-72
2022/04/23 03:15:33;;;;;;;33.70;20.45;;;5.60;99.90;;;;;;4994221;28;20077;-72
2022/04/23 03:18:13;;;;;;;31.02;21.00;;;5.60;99.90;;;;;;5009495;28;20061;-72
2022/04/23 03:20:41;;;;;;;38.20;22.65;;;5.70;99.90;;;;;;4993259;28;20105;-72
2022/04/23 03:23:06;;;;;;;36.38;21.05;;;5.70;99.90;;;;;;4994692;28;20014;-72
2022/04/23 03:25:32;;;;;;;35.70;21.17;;;5.60;99.90;;;;;;4994137;28;20102;-72
2022/04/23 03:28:00;;;;;;;34.33;20.92;;;5.60;99.90;;;;;;4994522;28;20435;-73
2022/04/23 03:30:28;;;;;;;41.28;22.83;;;5.60;99.90;;;;;;4994381;28;20058;-73
2022/04/23 03:32:54;;;;;;;38.40;22.60;;;5.60;99.90;;;;;;4994464;28;20065;-72
2022/04/23 03:35:21;;;;;;;33.38;20.85;;;5.50;99.90;;;;;;4994261;28;20026;-72
2022/04/23 03:37:48;;;;;;;39.10;21.83;;;5.40;99.90;;;;;;4994352;28;20031;-73
2022/04/23 03:40:14;;;;;;;39.78;22.48;;;5.50;99.90;;;;;;4994315;28;20105;-73
2022/04/23 03:42:45;;;;;;;42.95;23.70;;;5.50;99.90;;;;;;4994603;28;20054;-72
2022/04/23 03:45:11;;;;;;;47.33;21.33;;;5.50;99.90;;;;;;4995037;28;20049;-72
2022/04/23 03:47:36;;;;;;;37.72;22.00;;;5.60;99.90;;;;;;4998373;28;20033;-72
2022/04/23 03:50:06;;;;;;;36.33;23.45;;;5.60;99.90;;;;;;4998068;28;20026;-72
2022/04/23 03:52:32;;;;;;;40.53;22.15;;;5.60;99.90;;;;;;4998375;28;20026;-72
2022/04/23 03:54:57;;;;;;;34.85;22.25;;;5.60;99.90;;;;;;4997349;28;20034;-72
2022/04/23 03:57:23;;;;;;;38.97;21.60;;;5.50;99.90;;;;;;4998384;28;20027;-72
2022/04/23 03:59:48;;;;;;;39.35;20.70;;;5.40;99.90;;;;;;4997908;28;20030;-72
2022/04/23 04:02:14;;;;;;;34.70;20.58;;;5.40;99.90;;;;;;4997894;28;20022;-72
2022/04/23 04:04:41;;;;;;;33.45;20.33;;;5.40;99.90;;;;;;4997511;28;20101;-72
2022/04/23 04:07:07;;;;;;;41.55;22.00;;;5.30;99.90;;;;;;4997877;28;20022;-72
2022/04/23 04:09:33;;;;;;;38.83;20.15;;;5.30;99.90;;;;;;4997697;28;20037;-72
2022/04/23 04:12:01;;;;;;;34.05;21.10;;;5.30;99.90;;;;;;4997830;28;20042;-73
2022/04/23 04:14:28;;;;;;;41.22;21.05;;;5.30;99.90;;;;;;4998211;28;20034;-72
2022/04/23 04:16:54;;;;;;;31.70;19.90;;;5.20;99.90;;;;;;4997194;28;20030;-73
2022/04/23 04:19:20;;;;;;;35.40;20.05;;;5.20;99.90;;;;;;4997449;28;20027;-72
2022/04/23 04:21:46;;;;;;;31.00;19.85;;;5.20;99.90;;;;;;4997871;28;20030;-72
2022/04/23 04:24:16;;;;;;;40.65;20.08;;;5.10;99.90;;;;;;4997645;28;20015;-72
2022/04/23 04:26:49;;;;;;;36.30;20.35;;;5.10;99.90;;;;;;4997671;28;20556;-72
2022/04/23 04:29:15;;;;;;;32.58;21.63;;;5.10;99.90;;;;;;4997825;28;20084;-72
2022/04/23 04:31:50;;;;;;;33.88;19.98;;;5.10;99.90;;;;;;4996976;28;20415;-73
2022/04/23 04:34:28;;;;;;;34.95;21.27;;;5.10;99.90;;;;;;4998584;28;20058;-72
2022/04/23 04:37:01;;;;;;;48.97;22.92;;;5.20;99.90;;;;;;4998608;28;20199;-72
2022/04/23 04:39:27;;;;;;;45.17;22.10;;;5.30;99.90;;;;;;4997128;28;20505;-72
2022/04/23 04:41:53;;;;;;;48.80;23.05;;;5.40;99.90;;;;;;4997479;28;20030;-72
2022/04/23 04:44:18;;;;;;;38.95;20.52;;;5.40;99.90;;;;;;4997740;28;20031;-72
2022/04/23 04:46:44;;;;;;;47.88;21.52;;;5.50;99.90;;;;;;4996569;28;20027;-73
2022/04/23 04:49:09;;;;;;;31.38;20.08;;;5.50;99.90;;;;;;4996966;28;20446;-72
2022/04/23 04:51:36;;;;;;;36.72;21.33;;;5.50;99.90;;;;;;4996981;28;20089;-72
2022/04/23 04:54:05;;;;;;;42.20;21.55;;;5.50;99.90;;;;;;4997308;28;20053;-72
2022/04/23 04:56:31;;;;;;;39.55;22.00;;;5.50;99.90;;;;;;4996165;28;20105;-72
2022/04/23 04:58:57;;;;;;;55.20;22.88;;;5.50;99.90;;;;;;4996283;28;20027;-72
2022/04/23 05:01:22;;;;;;;42.85;21.95;;;5.60;99.90;;;;;;4996993;28;20027;-72
2022/04/23 05:03:48;;;;;;;42.78;22.20;;;5.70;99.90;;;;;;4996784;28;20026;-72
2022/04/23 05:06:14;;;;;;;41.92;22.45;;;5.80;99.90;;;;;;4997205;28;20026;-72
2022/04/23 05:08:39;;;;;;;46.08;22.60;;;5.80;99.90;;;;;;4997152;28;20033;-72
2022/04/23 05:11:05;;;;;;;38.70;22.48;;;5.90;99.90;;;;;;4995983;28;20042;-72
2022/04/23 05:13:31;;;;;;;44.83;21.25;;;6.00;99.90;;;;;;4996689;28;20026;-72
2022/04/23 05:15:58;;;;;;;39.80;21.95;;;6.00;99.90;;;;;;4996829;28;20030;-72
2022/04/23 05:18:24;;;;;;;35.88;19.60;;;6.10;99.90;;;;;;4995961;28;20022;-73
2022/04/23 05:20:49;;;;;;;33.38;20.00;;;6.20;99.90;;;;;;4996753;28;20081;-72
2022/04/23 05:23:15;;;;;;;33.28;19.23;;;6.30;99.90;;;;;;4996851;28;20027;-72
2022/04/23 05:25:41;;;;;;;33.17;19.13;;;6.30;99.90;;;;;;4996674;28;20030;-72
2022/04/23 05:28:07;;;;;;;46.70;19.85;;;6.40;99.90;;;;;;4996420;28;20061;-72
2022/04/23 05:30:37;;;;;;;32.35;19.02;;;6.50;99.90;;;;;;4995637;28;20043;-72
2022/04/23 05:33:03;;;;;;;34.20;19.45;;;6.60;99.90;;;;;;4996468;28;20552;-70
2022/04/23 05:35:29;;;;;;;38.63;19.90;;;6.60;99.90;;;;;;4995933;28;20117;-70
2022/04/23 05:37:54;;;;;;;36.40;20.30;;;6.80;99.90;;;;;;4996030;28;20112;-70
2022/04/23 05:40:20;;;;;;;32.25;18.45;;;6.90;99.90;;;;;;5010847;28;20467;-70
2022/04/23 05:42:45;;;;;;;36.55;20.10;;;6.90;99.90;;;;;;4995457;28;20034;-70
2022/04/23 05:45:11;;;;;;;28.52;17.90;;;7.00;99.90;;;;;;4995754;28;20026;-70
2022/04/23 05:47:41;;;;;;;35.63;19.10;;;7.10;99.90;;;;;;4996303;28;20105;-70
2022/04/23 05:50:08;;;;;;;33.65;18.55;;;7.20;99.90;;;;;;4995471;28;20018;-71
2022/04/23 05:52:35;;;;;;;35.30;17.25;;;7.30;99.90;;;;;;4995376;28;20073;-70
2022/04/23 05:55:00;;;;;;;29.95;16.65;;;7.40;99.90;;;;;;4995600;28;20038;-70
2022/04/23 05:57:26;;;;;;;29.98;16.95;;;7.50;99.90;;;;;;4995562;28;20434;-70
2022/04/23 05:59:52;;;;;;;32.25;17.08;;;7.70;99.90;;;;;;4995373;28;20471;-70
2022/04/23 06:02:17;;;;;;;32.83;16.63;;;7.80;99.90;;;;;;4995494;28;20048;-70
2022/04/23 06:04:45;;;;;;;30.95;17.13;;;7.90;99.90;;;;;;4994931;28;20053;-70
2022/04/23 06:07:11;;;;;;;28.48;16.27;;;8.00;99.90;;;;;;4995342;28;20022;-70
2022/04/23 06:09:36;;;;;;;32.33;16.70;;;8.10;99.90;;;;;;4994953;28;20037;-70
2022/04/23 06:12:02;;;;;;;33.42;16.15;;;8.20;99.90;;;;;;4995104;28;20033;-70
2022/04/23 06:14:28;;;;;;;33.15;16.25;;;8.30;99.90;;;;;;4995269;28;20475;-70
2022/04/23 06:16:53;;;;;;;27.52;16.42;;;8.50;99.90;;;;;;4995211;28;20030;-70
2022/04/23 06:19:19;;;;;;;39.80;16.10;;;8.70;99.90;;;;;;4995250;28;20026;-70
2022/04/23 06:21:44;;;;;;;32.22;15.60;;;8.70;99.90;;;;;;4994661;28;20031;-70
2022/04/23 06:24:10;;;;;;;25.45;15.27;;;8.80;99.90;;;;;;4995515;28;20033;-70
2022/04/23 06:26:36;;;;;;;26.15;13.77;;;9.00;99.90;;;;;;4995333;28;20058;-70
2022/04/23 06:29:01;;;;;;;29.40;14.30;;;9.10;99.90;;;;;;4994820;28;20033;-70
2022/04/23 06:31:27;;;;;;;32.53;16.48;;;9.20;99.90;;;;;;4994494;28;20030;-70
2022/04/23 06:33:52;;;;;;;28.30;15.25;;;9.40;99.90;;;;;;4994940;28;20049;-70
2022/04/23 06:36:18;;;;;;;24.95;14.20;;;9.60;99.90;;;;;;5010002;28;20034;-70
2022/04/23 06:38:43;;;;;;;21.88;14.55;;;9.60;99.90;;;;;;4994205;28;20035;-70
2022/04/23 06:41:09;;;;;;;23.40;13.82;;;9.70;99.90;;;;;;4994827;28;20109;-70
2022/04/23 06:43:34;;;;;;;32.30;14.50;;;9.90;99.90;;;;;;5009779;28;20022;-70
2022/04/23 06:46:00;;;;;;;24.38;14.88;;;10.00;99.90;;;;;;4993579;28;20050;-70
2022/04/23 06:48:25;;;;;;;33.72;14.32;;;10.10;99.90;;;;;;4994733;28;20054;-70
2022/04/23 06:50:51;;;;;;;31.67;15.52;;;10.10;99.90;;;;;;4994195;28;20041;-70
2022/04/23 06:53:16;;;;;;;28.33;15.73;;;10.20;99.90;;;;;;4994684;28;20023;-70
2022/04/23 06:55:42;;;;;;;28.20;14.70;;;10.40;99.90;;;;;;4994600;28;20574;-70
2022/04/23 06:58:08;;;;;;;30.00;16.08;;;10.50;99.90;;;;;;4995393;28;20494;-70
2022/04/23 07:00:33;;;;;;;31.70;14.95;;;10.80;99.90;;;;;;4995858;28;20018;-70
2022/04/23 07:02:59;;;;;;;29.85;15.18;;;10.90;99.90;;;;;;4994733;28;20038;-70
2022/04/23 07:05:24;;;;;;;21.52;13.27;;;11.10;99.90;;;;;;4994421;28;20109;-70
2022/04/23 07:07:57;;;;;;;26.92;14.40;;;11.20;99.90;;;;;;4994498;28;20045;-70
2022/04/23 07:10:25;;;;;;;20.52;14.32;;;11.30;99.90;;;;;;4994279;28;20018;-70
2022/04/23 07:12:52;;;;;;;23.50;12.05;;;11.40;99.90;;;;;;4993882;28;20475;-71
2022/04/23 07:15:18;;;;;;;19.60;12.35;;;11.40;99.90;;;;;;4994867;28;20112;-70
2022/04/23 07:17:43;;;;;;;24.00;12.68;;;11.50;99.90;;;;;;4994233;28;20058;-70
2022/04/23 07:20:10;;;;;;;22.35;12.88;;;11.60;99.90;;;;;;4995177;28;20157;-70
2022/04/23 07:22:35;;;;;;;26.67;12.07;;;11.80;99.90;;;;;;4997947;28;20475;-70
2022/04/23 07:25:01;;;;;;;31.20;12.82;;;11.70;99.90;;;;;;4998473;28;20038;-70
2022/04/23 07:27:27;;;;;;;19.73;11.82;;;11.70;99.90;;;;;;4998339;28;20026;-70
2022/04/23 07:29:53;;;;;;;25.63;10.85;;;11.80;99.90;;;;;;4998200;28;20035;-70
2022/04/23 07:32:20;;;;;;;19.40;10.85;;;11.90;99.90;;;;;;4998124;28;20026;-70
2022/04/23 07:37:31;;;;;;;20.30;10.10;;;12.20;99.90;;;;;;4997596;28;20033;-70
2022/04/23 07:40:02;;;;;;;16.83;10.15;;;12.30;99.90;;;;;;4998141;28;20490;-70
2022/04/23 07:42:28;;;;;;;21.48;10.50;;;12.30;99.90;;;;;;4998183;28;20023;-70
2022/04/23 07:44:54;;;;;;;23.52;10.60;;;12.50;99.90;;;;;;4997949;28;20015;-70
2022/04/23 07:47:20;;;;;;;18.13;9.30;;;12.60;99.90;;;;;;4997880;28;20491;-69
2022/04/23 07:49:46;;;;;;;20.92;9.90;;;12.80;99.90;;;;;;4997354;28;20034;-70
2022/04/23 07:52:12;;;;;;;14.32;9.57;;;12.90;99.90;;;;;;4998128;28;20042;-70
2022/04/23 07:54:38;;;;;;;24.20;10.32;;;13.10;99.90;;;;;;4997827;28;20025;-69
2022/04/23 07:57:06;;;;;;;15.55;8.50;;;13.40;99.90;;;;;;4997925;28;20054;-69
2022/04/23 07:59:32;;;;;;;15.73;8.80;;;13.60;99.90;;;;;;4997588;28;20113;-70
2022/04/23 08:01:58;;;;;;;16.27;9.40;;;13.40;99.90;;;;;;4997152;28;20108;-70
2022/04/23 08:04:23;;;;;;;24.73;8.95;;;13.60;99.90;;;;;;4997616;28;20022;-69
2022/04/23 08:06:49;;;;;;;14.65;8.38;;;13.60;99.90;;;;;;4997694;28;20037;-70
2022/04/23 08:09:15;;;;;;;17.55;8.02;;;13.70;99.90;;;;;;4997303;28;20453;-70
2022/04/23 08:11:40;;;;;;;29.23;8.43;;;13.80;99.90;;;;;;4997339;28;20498;-70
2022/04/23 08:14:06;;;;;;;23.77;8.52;;;13.70;99.90;;;;;;4997094;28;20471;-70
2022/04/23 08:16:32;;;;;;;11.98;8.38;;;13.40;99.90;;;;;;5012432;28;20042;-70
2022/04/23 08:18:57;;;;;;;14.23;7.85;;;13.60;99.90;;;;;;4997477;28;20531;-71
2022/04/23 08:21:23;;;;;;;14.55;8.25;;;13.60;99.90;;;;;;4997267;28;20109;-70
2022/04/23 08:23:48;;;;;;;17.98;8.88;;;13.60;99.90;;;;;;4996860;28;20029;-70
2022/04/23 08:26:14;;;;;;;13.90;8.00;;;13.80;99.90;;;;;;4997717;28;20414;-70
2022/04/23 08:31:24;;;;;;;15.45;8.68;;;14.00;99.90;;;;;;4996909;28;20092;-70
2022/04/23 08:33:59;;;;;;;23.50;8.07;;;14.20;99.90;;;;;;4996720;28;20390;-70
2022/04/23 08:36:35;;;;;;;19.15;8.32;;;14.50;99.90;;;;;;4997116;28;20113;-70
2022/04/23 08:39:01;;;;;;;16.17;7.97;;;14.70;99.90;;;;;;4997122;28;20080;-70
2022/04/23 08:41:28;;;;;;;17.33;8.95;;;14.30;99.90;;;;;;4997717;28;20022;-70
2022/04/23 08:44:05;;;;;;;16.38;7.85;;;14.60;99.90;;;;;;4997600;28;20022;-69
2022/04/23 08:46:34;;;;;;;11.55;7.93;;;14.70;99.90;;;;;;4996619;28;20489;-70
2022/04/23 08:49:14;;;;;;;14.35;8.50;;;14.40;99.90;;;;;;4996941;28;20031;-70
2022/04/23 08:51:52;;;;;;;17.90;9.40;;;14.40;99.90;;;;;;4996828;28;20053;-69
2022/04/23 08:54:18;;;;;;;13.65;7.88;;;14.40;99.90;;;;;;4996925;28;20039;-69
2022/04/23 08:56:45;;;;;;;15.55;7.32;;;14.60;99.90;;;;;;4996189;28;20462;-70
2022/04/23 08:59:13;;;;;;;12.48;7.93;;;14.90;99.90;;;;;;4996679;28;20111;-70
2022/04/23 09:01:39;;;;;;;19.23;8.18;;;15.30;99.90;;;;;;4996496;28;20027;-70
2022/04/23 09:04:06;;;;;;;12.88;8.13;;;15.50;99.90;;;;;;4996433;28;20101;-70
2022/04/23 09:06:46;;;;;;;14.48;7.90;;;15.70;99.90;;;;;;4996747;28;20035;-70
2022/04/23 09:09:13;;;;;;;12.65;7.82;;;15.90;99.90;;;;;;4996335;28;20032;-70
2022/04/23 09:11:41;;;;;;;13.68;7.40;;;16.00;99.90;;;;;;4995993;28;20030;-70
2022/04/23 09:14:09;;;;;;;12.75;7.18;;;16.20;99.90;;;;;;4996428;28;20062;-70
2022/04/23 09:25:07;;;;;;;13.07;8.10;;;15.20;99.90;;;;;;4998102;28;20076;-70
2022/04/23 09:27:34;;;;;;;14.98;8.35;;;15.30;99.90;;;;;;4996757;28;20023;-70
2022/04/23 09:30:10;;;;;;;14.77;8.30;;;15.50;99.90;;;;;;4995810;28;20165;-70
2022/04/23 09:32:36;;;;;;;14.43;7.68;;;15.60;99.90;;;;;;4996170;28;20061;-70
2022/04/23 09:35:12;;;;;;;10.13;6.82;;;15.50;99.90;;;;;;5011130;28;20396;-70
2022/04/23 09:40:27;;;;;;;14.80;8.15;;;15.30;99.90;;;;;;4996062;28;20083;-70
2022/04/23 09:43:07;;;;;;;13.90;7.60;;;15.50;99.90;;;;;;4995501;28;20022;-69
2022/04/23 09:45:36;;;;;;;15.15;8.27;;;15.80;99.90;;;;;;4995637;28;20027;-69
2022/04/23 09:48:15;;;;;;;22.13;7.93;;;16.30;99.90;;;;;;4994904;28;20030;-69
2022/04/23 09:50:42;;;;;;;15.80;8.02;;;16.40;99.90;;;;;;5011142;28;20015;-69
2022/04/23 09:53:19;;;;;;;14.95;7.65;;;16.50;99.90;;;;;;4996067;28;20479;-69
2022/04/23 09:55:46;;;;;;;20.42;8.18;;;16.40;99.90;;;;;;4994547;28;20022;-70
2022/04/23 09:58:13;;;;;;;15.68;8.38;;;16.60;99.90;;;;;;4995009;28;20034;-70
2022/04/23 10:00:47;;;;;;;17.48;8.32;;;16.70;99.90;;;;;;4995450;28;20014;-70
2022/04/23 10:03:13;;;;;;;12.68;7.95;;;16.80;99.90;;;;;;4995798;28;20100;-70
2022/04/23 10:05:49;;;;;;;20.35;7.78;;;17.10;99.90;;;;;;4995665;28;20027;-70
2022/04/23 10:08:16;;;;;;;21.20;8.85;;;17.30;99.90;;;;;;4995526;28;20390;-70
2022/04/23 10:10:56;;;;;;;11.07;7.85;;;17.30;99.90;;;;;;4995240;28;20022;-70
2022/04/23 10:13:25;;;;;;;17.13;7.80;;;17.70;99.90;;;;;;4994752;28;20030;-69
2022/04/23 10:15:53;;;;;;;12.68;8.45;;;17.70;99.90;;;;;;4995124;28;20157;-70
2022/04/23 10:18:21;;;;;;;18.05;8.75;;;17.80;99.90;;;;;;4995278;28;20030;-70
2022/04/23 10:20:55;;;;;;;11.70;7.63;;;17.80;99.90;;;;;;4995059;28;20014;-70
2022/04/23 10:23:42;;;;;;;15.07;7.72;;;17.60;99.90;;;;;;4995418;28;20019;-69
2022/04/23 10:26:50;;;;;;;13.75;8.57;;;17.90;99.90;;;;;;4996641;28;20029;-70
2022/04/23 10:29:20;;;;;;;14.90;8.18;;;18.20;99.90;;;;;;4996197;28;20034;-70
2022/04/23 10:32:09;;;;;;;13.35;8.00;;;18.40;99.90;;;;;;4995247;28;20049;-70
2022/04/23 10:34:35;;;;;;;20.45;8.88;;;18.60;99.90;;;;;;4996303;28;20022;-70
2022/04/23 10:37:39;;;;;;;12.73;8.07;;;18.60;99.90;;;;;;4996336;28;20101;-69
2022/04/23 10:40:05;;;;;;;12.23;7.75;;;18.60;99.90;;;;;;4985219;28;20053;-70
2022/04/23 10:42:32;;;;;;;17.33;8.60;;;18.30;99.90;;;;;;4995031;28;20022;-70
2022/04/23 10:45:06;;;;;;;13.40;8.77;;;18.30;99.90;;;;;;4995584;28;20483;-69
2022/04/23 10:47:36;;;;;;;19.83;9.70;;;18.50;99.90;;;;;;4996495;28;20174;-70
2022/04/23 10:50:23;;;;;;;15.93;8.25;;;18.50;99.90;;;;;;5010245;28;20038;-70
2022/04/23 10:52:50;;;;;;;18.65;9.32;;;18.40;99.90;;;;;;4995317;28;20022;-69
2022/04/23 10:55:16;;;;;;;15.10;9.93;;;18.60;99.90;;;;;;4995219;28;20482;-70
2022/04/23 10:57:53;;;;;;;13.50;7.90;;;18.70;99.90;;;;;;4995135;28;20031;-70
2022/04/23 11:00:20;;;;;;;16.98;8.63;;;18.60;99.90;;;;;;4994853;28;20022;-69
2022/04/23 11:02:57;;;;;;;13.40;9.00;;;18.50;99.90;;;;;;4994249;28;20030;-70
2022/04/23 11:14:37;;;;;;;13.80;9.52;;;19.80;99.90;;;;;;4995299;28;20030;-70
2022/04/23 11:17:03;;;;;;;13.27;8.83;;;20.00;99.90;;;;;;4994307;28;20030;-70
2022/04/23 11:19:30;;;;;;;14.23;9.18;;;20.40;99.90;;;;;;4994782;28;20376;-70
2022/04/23 11:21:55;;;;;;;23.08;8.88;;;20.60;99.90;;;;;;4994833;28;20034;-70
2022/04/23 11:24:22;;;;;;;14.30;8.65;;;20.40;99.90;;;;;;4994562;28;20097;-70
2022/04/23 11:26:49;;;;;;;19.88;9.23;;;20.50;99.90;;;;;;5009228;28;20023;-70
2022/04/23 11:29:15;;;;;;;12.50;7.85;;;20.60;99.90;;;;;;4994289;28;20070;-71
2022/04/23 11:31:51;;;;;;;15.82;9.43;;;20.40;99.90;;;;;;4995463;28;20018;-70
2022/04/23 11:34:17;;;;;;;12.52;7.78;;;19.80;99.90;;;;;;4994330;28;20078;-70
2022/04/23 11:36:43;;;;;;;18.45;9.57;;;19.90;99.90;;;;;;4994740;28;20054;-70
2022/04/23 11:39:10;;;;;;;11.88;8.25;;;19.90;99.90;;;;;;4994325;28;20474;-70
2022/04/23 11:41:43;;;;;;;17.42;9.05;;;19.80;99.90;;;;;;4995162;28;20029;-70
2022/04/23 11:44:14;;;;;;;17.55;9.40;;;19.80;99.90;;;;;;4994958;28;20025;-70
2022/04/23 11:46:44;;;;;;;26.83;8.02;;;19.90;99.90;;;;;;4995702;28;20022;-70
2022/04/23 11:49:10;;;;;;;15.15;8.82;;;20.50;99.90;;;;;;4995395;28;20033;-70
2022/04/23 11:51:40;;;;;;;15.60;8.50;;;20.80;99.90;;;;;;4994707;28;20030;-70
2022/04/23 11:54:05;;;;;;;18.83;8.90;;;21.20;99.90;;;;;;4994499;28;20035;-70
2022/04/23 11:56:33;;;;;;;11.18;7.82;;;21.70;99.90;;;;;;4994391;28;20121;-70
2022/04/23 11:59:03;;;;;;;13.70;7.95;;;22.00;99.90;;;;;;4993844;28;20118;-71
2022/04/23 12:01:29;;;;;;;11.00;7.78;;;22.10;99.90;;;;;;4994339;28;20022;-70
2022/04/23 12:03:56;;;;;;;20.63;7.38;;;22.10;99.90;;;;;;4994612;28;20018;-70
2022/04/23 12:06:23;;;;;;;11.07;7.80;;;22.30;99.90;;;;;;4995159;28;20487;-70
2022/04/23 12:08:48;;;;;;;15.88;7.80;;;22.60;99.90;;;;;;4997933;28;20037;-70
2022/04/23 12:11:29;;;;;;;15.85;7.57;;;22.90;99.90;;;;;;4997998;28;20027;-70
2022/04/23 12:13:55;;;;;;;18.17;7.38;;;23.30;99.90;;;;;;4998151;28;20030;-70
2022/04/23 12:16:38;;;;;;;14.18;7.30;;;23.70;99.90;;;;;;4997446;28;20394;-70
2022/04/23 12:19:12;;;;;;;12.23;7.07;;;23.70;99.60;;;;;;4998112;28;20022;-70
2022/04/23 12:21:38;;;;;;;12.57;6.82;;;23.60;97.30;;;;;;4997775;28;20022;-70
2022/04/23 12:24:07;;;;;;;9.63;7.20;;;23.40;98.40;;;;;;4997394;28;20027;-70
2022/04/23 12:26:37;;;;;;;12.15;7.03;;;23.70;98.80;;;;;;4997737;28;20053;-70
2022/04/23 12:43:21;;;;;;;29.55;9.57;;;23.50;93.00;;;;;;4977902;28;20030;-70
2022/04/23 12:45:48;;;;;;;10.32;7.20;;;23.10;95.90;;;;;;4995641;28;20029;-70
2022/04/23 12:48:14;;;;;;;19.40;7.88;;;23.10;96.40;;;;;;4997128;28;20046;-70
2022/04/23 12:50:40;;;;;;;9.65;7.15;;;23.50;97.20;;;;;;4997473;28;20022;-70
2022/04/23 12:53:06;;;;;;;11.45;7.85;;;24.00;96.60;;;;;;5016461;28;20566;-70
2022/04/23 12:55:37;;;;;;;10.60;7.68;;;24.50;95.40;;;;;;5016162;28;20041;-71
2022/04/23 12:58:02;;;;;;;9.10;7.13;;;24.90;93.60;;;;;;5005254;28;20022;-70
2022/04/23 13:00:29;;;;;;;14.40;8.48;;;24.70;92.30;;;;;;4977425;28;20077;-70
2022/04/23 13:02:58;;;;;;;13.82;6.70;;;24.10;92.50;;;;;;4977675;28;20031;-70
2022/04/23 13:05:25;;;;;;;13.60;8.45;;;24.30;92.10;;;;;;4977322;28;20053;-71
2022/04/23 13:10:35;;;;;;;15.57;8.32;;;25.00;91.50;;;;;;4977570;28;20080;-71
2022/04/23 13:13:02;;;;;;;11.70;8.02;;;25.10;90.70;;;;;;4977319;28;20053;-71
2022/04/23 13:15:29;;;;;;;12.02;8.07;;;25.10;89.10;;;;;;4977458;28;20026;-70
2022/04/23 13:17:55;;;;;;;9.60;7.50;;;24.80;89.10;;;;;;4975716;28;20157;-71
2022/04/23 13:20:21;;;;;;;9.40;6.75;;;25.20;90.90;;;;;;4977105;28;20501;-70
2022/04/23 13:22:47;;;;;;;12.02;7.18;;;25.30;90.30;;;;;;4977184;28;20023;-71